Time;durP1;ratioP1;P1;durP2;ratioP2;P2;SDS_P1;SDS_P2;PMS_P1;PMS_P2;Temp;Humidity;BMP_temperature;BMP_pressure;BME280_temperature;BME280_humidity;BME280_pressure;Samples;Min_cycle;Max_cycle;Signal;HPM_P1;HPM_P2
2022/11/07 00:01:59;;;;;;;40.78;22.82;;;;;;;5.47;100.00;100037.58;2933800;77;21055;-89
2022/11/07 00:06:01;;;;;;;35.78;19.05;;;;;;;5.51;100.00;100039.55;2947824;77;21518;-88
2022/11/07 00:10:04;;;;;;;20.50;14.10;;;;;;;5.64;100.00;100044.88;2885505;79;21035;-88
2022/11/07 00:14:06;;;;;;;26.37;15.23;;;;;;;5.78;100.00;100038.23;2945019;78;20967;-90
2022/11/07 00:18:07;;;;;;;19.60;13.15;;;;;;;5.94;100.00;100046.45;2886914;78;21028;-89
2022/11/07 00:22:09;;;;;;;23.70;14.13;;;;;;;6.03;100.00;100039.75;2936357;78;21030;-89
2022/11/07 00:26:13;;;;;;;30.75;20.05;;;;;;;5.96;100.00;100026.91;2964837;78;21837;-89
2022/11/07 00:30:15;;;;;;;59.20;28.80;;;;;;;5.76;100.00;100026.92;2966000;79;20993;-89
2022/11/07 00:34:17;;;;;;;52.40;30.25;;;;;;;5.60;100.00;100033.69;2913360;80;21038;-88
2022/11/07 00:38:18;;;;;;;40.23;19.80;;;;;;;5.63;100.00;100027.34;2954357;79;21010;-89
2022/11/07 00:42:19;;;;;;;29.65;18.62;;;;;;;5.63;100.00;100014.16;2925355;77;21018;-89
2022/11/07 00:46:21;;;;;;;26.48;14.60;;;;;;;5.57;100.00;100018.03;2956626;77;21042;-89
2022/11/07 00:50:22;;;;;;;26.65;15.70;;;;;;;5.53;100.00;100013.91;3007058;77;21039;-89
2022/11/07 00:54:24;;;;;;;27.37;18.45;;;;;;;5.50;100.00;100011.48;2925233;77;21416;-88
2022/11/07 00:58:25;;;;;;;24.27;15.10;;;;;;;5.70;100.00;100008.86;3004415;77;21043;-89
2022/11/07 01:02:27;;;;;;;24.43;15.28;;;;;;;5.77;100.00;100001.36;3002515;77;20999;-88
2022/11/07 01:06:30;;;;;;;23.57;14.18;;;;;;;5.88;100.00;99996.69;3017303;77;21043;-89
2022/11/07 01:10:32;;;;;;;18.85;12.68;;;;;;;5.99;100.00;99991.08;3017143;76;21079;-89
2022/11/07 01:14:34;;;;;;;20.92;13.03;;;;;;;6.07;100.00;99982.64;2967334;77;21124;-88
2022/11/07 01:18:36;;;;;;;31.05;11.97;;;;;;;6.11;100.00;99974.91;3053795;76;21569;-88
2022/11/07 01:22:38;;;;;;;14.63;11.80;;;;;;;6.23;100.00;99968.39;3020210;77;21117;-88
2022/11/07 01:26:41;;;;;;;22.52;14.58;;;;;;;6.27;100.00;99976.47;3030191;76;21019;-88
2022/11/07 01:30:44;;;;;;;14.60;11.10;;;;;;;6.38;100.00;99979.23;2986979;76;20967;-88
2022/11/07 01:34:46;;;;;;;14.58;10.58;;;;;;;6.49;100.00;99969.73;3045599;76;20999;-88
2022/11/07 01:38:48;;;;;;;18.80;9.95;;;;;;;6.65;100.00;99946.52;3006338;77;21508;-89
2022/11/07 01:42:49;;;;;;;13.28;6.78;;;;;;;6.81;100.00;99942.80;3030614;77;21023;-88
2022/11/07 01:46:54;;;;;;;9.13;6.10;;;;;;;7.06;100.00;99946.30;2988511;78;21007;-88
2022/11/07 01:50:56;;;;;;;10.15;7.05;;;;;;;7.41;100.00;99959.61;3002054;77;21708;-89
2022/11/07 01:55:11;;;;;;;12.37;7.53;;;;;;;7.66;100.00;99967.05;3009483;76;20999;-87
2022/11/07 01:59:16;;;;;;;11.28;7.70;;;;;;;7.88;100.00;99955.33;3024938;76;22543;-89
2022/11/07 02:03:20;;;;;;;13.08;7.70;;;;;;;8.06;100.00;99940.68;2972786;77;21055;-90
2022/11/07 02:07:23;;;;;;;10.65;7.87;;;;;;;8.19;100.00;99943.22;2989056;76;20984;-89
2022/11/07 02:11:25;;;;;;;10.35;6.50;;;;;;;8.34;100.00;99939.84;3042310;76;20988;-89
2022/11/07 02:15:26;;;;;;;12.05;6.62;;;;;;;8.44;100.00;99947.42;2985884;77;21015;-89
2022/11/07 02:19:47;;;;;;;8.70;5.78;;;;;;;8.58;100.00;99956.14;2986692;77;21051;-90
2022/11/07 02:24:09;;;;;;;9.63;6.20;;;;;;;8.63;99.25;99953.96;3002723;76;20971;-90
2022/11/07 02:28:12;;;;;;;8.60;6.17;;;;;;;8.75;99.96;99971.20;2992115;78;21011;-89
2022/11/07 02:32:14;;;;;;;8.45;7.08;;;;;;;8.89;100.00;99976.27;3007539;76;20967;-90
2022/11/07 02:36:19;;;;;;;10.18;6.92;;;;;;;8.90;97.28;99990.35;2998688;77;21011;-89
2022/11/07 02:40:21;;;;;;;9.50;5.55;;;;;;;8.77;96.70;99996.65;3004926;77;20957;-88
2022/11/07 02:44:22;;;;;;;15.40;7.70;;;;;;;8.75;98.55;99989.77;3006566;76;21062;-87
2022/11/07 02:48:31;;;;;;;9.20;6.22;;;;;;;8.83;99.36;99995.30;2996562;77;21606;-88
2022/11/07 02:52:33;;;;;;;20.65;7.97;;;;;;;8.92;99.27;99985.30;2936536;77;20999;-88
2022/11/07 02:56:34;;;;;;;9.03;5.95;;;;;;;8.99;97.83;99990.45;3005751;77;21071;-87
2022/11/07 03:00:35;;;;;;;5.62;4.62;;;;;;;9.03;97.79;99991.53;3032645;75;21514;-90
2022/11/07 03:04:37;;;;;;;10.55;5.90;;;;;;;9.04;96.86;99986.59;3041069;76;21000;-89
2022/11/07 03:08:39;;;;;;;10.13;6.30;;;;;;;8.98;96.70;99979.48;2986380;77;21104;-88
2022/11/07 03:12:41;;;;;;;11.15;7.08;;;;;;;9.00;96.87;99970.92;3013502;77;21039;-89
2022/11/07 03:16:42;;;;;;;9.83;6.08;;;;;;;8.85;94.88;99965.55;2996254;77;21561;-89
2022/11/07 03:20:43;;;;;;;9.88;6.92;;;;;;;8.75;96.75;99984.46;2987352;76;21053;-88
2022/11/07 03:24:45;;;;;;;8.48;6.92;;;;;;;8.76;96.65;99980.38;2997204;78;21021;-89
2022/11/07 03:28:46;;;;;;;10.50;7.90;;;;;;;8.70;95.00;99993.63;3012346;76;21058;-88
2022/11/07 03:32:52;;;;;;;14.80;8.23;;;;;;;8.50;93.59;99993.86;2967000;76;20976;-88
2022/11/07 03:36:53;;;;;;;;;;;;;;;8.31;93.85;99997.53;3012487;78;21637;-89
2022/11/07 03:40:55;;;;;;;17.15;8.90;;;;;;;8.15;94.05;100003.54;3006055;76;20416;-89
2022/11/07 03:44:57;;;;;;;15.48;9.85;;;;;;;8.04;95.48;100010.13;3030053;76;21025;-88
2022/11/07 03:49:00;;;;;;;15.08;8.73;;;;;;;8.12;96.42;100004.25;3016003;76;21501;-89
2022/11/07 03:53:01;;;;;;;15.30;10.55;;;;;;;8.18;96.17;99995.85;2957846;77;20987;-88
2022/11/07 03:57:03;;;;;;;15.03;10.08;;;;;;;8.23;95.22;99995.47;3038659;76;21051;-87
2022/11/07 04:01:05;;;;;;;18.17;10.60;;;;;;;8.20;95.58;99967.89;3013971;77;21046;-87
2022/11/07 04:05:07;;;;;;;17.37;10.98;;;;;;;8.21;95.89;99966.93;3003445;76;21668;-86
2022/11/07 04:09:08;;;;;;;16.90;11.80;;;;;;;8.23;95.78;99966.33;2991080;77;21003;-86
2022/11/07 04:17:30;;;;;;;15.23;10.55;;;;;;;8.26;95.63;99994.77;2947286;78;21565;-89
2022/11/07 04:21:31;;;;;;;15.68;9.75;;;;;;;8.29;95.38;100001.16;2899366;79;21038;-89
2022/11/07 04:29:53;;;;;;;12.60;9.10;;;;;;;8.34;95.79;99992.86;2972549;78;20977;-89
2022/11/07 04:33:55;;;;;;;17.20;9.60;;;;;;;8.23;95.91;99991.03;2985564;77;21050;-90
2022/11/07 04:37:57;;;;;;;13.32;9.15;;;;;;;8.24;96.77;99980.80;2967820;77;21063;-89
2022/11/07 04:41:58;;;;;;;19.73;8.45;;;;;;;8.19;96.48;99988.73;2910775;79;21023;-89
2022/11/07 04:46:00;;;;;;;16.35;9.18;;;;;;;8.18;98.05;99993.20;2905507;79;21474;-89
2022/11/07 04:50:10;;;;;;;14.47;8.03;;;;;;;8.04;99.33;100000.02;2904175;79;21023;-89
2022/11/07 04:54:13;;;;;;;13.20;9.65;;;;;;;7.91;100.00;99994.32;2938660;79;21082;-89
2022/11/07 04:58:14;;;;;;;19.67;10.65;;;;;;;7.97;100.00;99998.31;2934617;79;21015;-88
2022/11/07 05:02:15;;;;;;;10.82;7.05;;;;;;;8.11;100.00;99994.14;2953840;79;21706;-90
2022/11/07 05:06:18;;;;;;;12.65;8.03;;;;;;;8.24;100.00;99995.84;2914235;78;21098;-88
2022/11/07 05:10:27;;;;;;;17.90;10.03;;;;;;;8.36;100.00;100001.53;2940135;78;21066;-91
2022/11/07 05:14:30;;;;;;;10.43;6.47;;;;;;;8.49;99.63;100003.23;2981672;78;21514;-93
2022/11/07 05:18:31;;;;;;;9.73;8.05;;;;;;;8.55;98.02;100009.41;2938704;79;21007;-92
2022/11/07 05:26:52;;;;;;;13.68;7.42;;;;;;;8.57;98.61;100007.48;2913119;80;21000;-91
2022/11/07 05:30:55;;;;;;;9.73;7.33;;;;;;;8.55;98.93;100006.30;2916702;78;20975;-92
2022/11/07 05:34:56;;;;;;;10.82;6.75;;;;;;;8.62;99.75;100010.61;2920087;78;21094;-94
2022/11/07 05:38:58;;;;;;;10.40;6.20;;;;;;;8.74;100.00;100021.23;2933103;78;21011;-92
2022/11/07 05:43:03;;;;;;;7.60;5.50;;;;;;;8.78;100.00;100020.88;2852354;78;21008;-89
2022/11/07 05:47:05;;;;;;;7.17;5.78;;;;;;;8.89;100.00;100023.15;2954320;77;21007;-91
2022/11/07 05:51:07;;;;;;;6.70;5.70;;;;;;;8.99;100.00;100033.41;2932174;78;21521;-93
2022/11/07 05:55:09;;;;;;;7.58;5.95;;;;;;;9.06;100.00;100045.70;2971757;78;20992;-93
2022/11/07 05:59:11;;;;;;;14.33;6.53;;;;;;;9.12;100.00;100049.19;2989677;78;21023;-92
2022/11/07 06:03:13;;;;;;;7.97;5.90;;;;;;;9.14;99.53;100049.91;2906876;80;20972;-92
2022/11/07 06:07:14;;;;;;;12.00;5.20;;;;;;;9.20;99.94;100060.02;2933570;79;21439;-93
2022/11/07 06:11:16;;;;;;;10.60;6.12;;;;;;;9.26;99.67;100066.19;3024837;76;21478;-92
2022/11/07 06:15:18;;;;;;;12.63;7.28;;;;;;;9.33;99.33;100073.66;2991759;76;20956;-93
2022/11/07 06:19:19;;;;;;;8.68;6.10;;;;;;;9.39;99.05;100075.34;3009791;77;21041;-91
2022/11/07 06:23:21;;;;;;;7.58;4.65;;;;;;;9.46;98.66;100075.69;2964548;76;21518;-92
2022/11/07 06:27:22;;;;;;;8.05;6.53;;;;;;;9.51;97.46;100074.83;2918837;78;21628;-93
2022/11/07 06:31:24;;;;;;;8.15;5.53;;;;;;;9.53;95.71;100083.51;2977822;77;21023;-93
2022/11/07 06:35:25;;;;;;;8.00;5.75;;;;;;;9.49;95.01;100093.16;3028684;75;21012;-92
2022/11/07 06:39:27;;;;;;;8.30;6.05;;;;;;;9.45;94.39;100105.00;2985384;78;20995;-92
2022/11/07 06:43:28;;;;;;;9.65;6.47;;;;;;;9.41;94.08;100101.73;2985744;78;21011;-93
2022/11/07 06:47:30;;;;;;;9.08;5.83;;;;;;;9.37;93.83;100104.29;3056429;74;21447;-93
2022/11/07 06:51:31;;;;;;;8.53;4.80;;;;;;;9.26;93.88;100118.41;2974952;78;21038;-92
2022/11/07 06:55:34;;;;;;;8.15;6.62;;;;;;;9.33;95.09;100122.77;3018049;77;20972;-93
2022/11/07 06:59:35;;;;;;;9.38;5.92;;;;;;;9.32;93.81;100128.53;3036127;76;21004;-91
2022/11/07 07:03:37;;;;;;;10.82;6.30;;;;;;;9.28;94.58;100130.61;3010721;76;20982;-92
2022/11/07 07:07:38;;;;;;;15.05;6.37;;;;;;;9.36;95.10;100135.78;2957986;77;21054;-93
2022/11/07 07:11:41;;;;;;;9.65;6.80;;;;;;;9.33;95.27;100154.61;2929526;79;21332;-93
2022/11/07 07:15:51;;;;;;;7.37;5.50;;;;;;;9.33;96.68;100158.09;2947283;79;21131;-92
2022/11/07 07:19:53;;;;;;;10.58;5.37;;;;;;;9.37;97.42;100154.26;2904196;80;21003;-92
2022/11/07 07:23:54;;;;;;;11.63;5.00;;;;;;;9.52;98.22;100164.60;2956231;78;21009;-93
2022/11/07 07:27:56;;;;;;;13.05;5.35;;;;;;;9.76;98.14;100174.26;2949330;79;21008;-92
2022/11/07 07:31:57;;;;;;;6.40;4.05;;;;;;;9.96;98.18;100192.09;2925126;79;21059;-92
2022/11/07 07:35:59;;;;;;;7.20;4.60;;;;;;;10.00;95.13;100188.68;2944532;79;21084;-92
2022/11/07 07:40:01;;;;;;;9.38;7.40;;;;;;;10.15;94.43;100184.78;2921355;78;21061;-93
2022/11/07 07:44:02;;;;;;;16.95;6.00;;;;;;;10.24;95.73;100189.00;2951609;78;21038;-93
2022/11/07 07:48:05;;;;;;;9.33;6.40;;;;;;;10.25;96.07;100186.70;2979313;78;20971;-93
2022/11/07 07:52:06;;;;;;;8.33;5.55;;;;;;;10.24;96.44;100190.33;2957478;78;21016;-91
2022/11/07 07:56:08;;;;;;;9.85;5.10;;;;;;;10.19;96.91;100196.48;2955799;78;21507;-90
2022/11/07 08:00:11;;;;;;;11.60;6.45;;;;;;;10.38;99.45;100198.48;2927711;78;20995;-93
2022/11/07 08:04:13;;;;;;;6.85;5.55;;;;;;;10.50;99.28;100194.83;2929100;79;21506;-91
2022/11/07 08:08:14;;;;;;;7.40;4.05;;;;;;;10.62;99.29;100208.95;2947948;78;21531;-92
2022/11/07 08:12:16;;;;;;;6.47;4.37;;;;;;;10.69;99.46;100202.60;2967402;78;21051;-93
2022/11/07 08:16:17;;;;;;;4.05;3.20;;;;;;;10.82;99.64;100205.10;2923719;78;21027;-92
2022/11/07 08:20:19;;;;;;;6.90;4.33;;;;;;;10.95;97.74;100196.41;3024114;77;20951;-94
2022/11/07 08:24:21;;;;;;;5.75;4.12;;;;;;;11.11;97.53;100199.10;2945484;77;21007;-93
2022/11/07 08:28:26;;;;;;;8.58;4.80;;;;;;;11.31;97.12;100207.19;2945836;79;20954;-93
2022/11/07 08:32:28;;;;;;;15.10;5.83;;;;;;;11.41;95.46;100202.27;2975768;78;20963;-92
2022/11/07 08:36:29;;;;;;;8.25;3.98;;;;;;;11.58;96.59;100203.95;2979056;78;20960;-93
2022/11/07 08:40:31;;;;;;;7.80;4.37;;;;;;;11.66;95.88;100209.44;2919903;78;21021;-92
2022/11/07 08:44:35;;;;;;;4.45;4.00;;;;;;;11.64;93.91;100201.24;2950291;77;21007;-94
2022/11/07 08:48:36;;;;;;;4.67;3.33;;;;;;;11.66;92.73;100210.77;2935986;79;21042;-93
2022/11/07 08:52:37;;;;;;;6.15;4.42;;;;;;;11.73;93.71;100223.58;3005318;77;21000;-94
2022/11/07 08:56:39;;;;;;;4.55;3.75;;;;;;;11.75;93.68;100211.78;2926828;79;21527;-94
2022/11/07 09:00:41;;;;;;;5.50;3.92;;;;;;;11.83;90.59;100213.77;2947288;79;21000;-92
2022/11/07 09:04:42;;;;;;;6.12;3.92;;;;;;;11.98;91.19;100207.56;2936207;78;21051;-93
2022/11/07 09:08:44;;;;;;;8.63;3.30;;;;;;;12.13;91.67;100210.22;2932043;80;21026;-94
2022/11/07 09:12:48;;;;;;;3.37;3.08;;;;;;;12.38;92.27;100207.17;2926330;79;20995;-94
2022/11/07 09:16:49;;;;;;;3.30;2.65;;;;;;;12.54;89.55;100206.60;2920486;79;21016;-90
2022/11/07 09:20:51;;;;;;;5.53;2.65;;;;;;;12.73;88.90;100211.10;2967616;78;21066;-93
2022/11/07 09:24:52;;;;;;;4.72;2.65;;;;;;;12.82;87.53;100212.08;2928058;79;21023;-95
2022/11/07 09:28:54;;;;;;;3.02;2.25;;;;;;;12.90;87.10;100216.20;2950817;79;21014;-92
2022/11/07 09:32:56;;;;;;;4.40;1.67;;;;;;;13.02;87.35;100205.38;2957895;78;21983;-90
2022/11/07 09:36:57;;;;;;;4.83;2.65;;;;;;;13.09;87.21;100201.98;2889613;79;21036;-90
2022/11/07 09:41:25;;;;;;;3.08;2.62;;;;;;;13.19;87.09;100214.45;2892441;81;21106;-91
2022/11/07 09:45:29;;;;;;;2.98;2.05;;;;;;;13.36;88.65;100214.19;2923585;79;21478;-90
2022/11/07 09:49:40;;;;;;;3.35;2.33;;;;;;;13.47;85.91;100215.38;2964559;78;21078;-88
2022/11/07 09:53:46;;;;;;;3.72;2.30;;;;;;;13.59;85.15;100217.89;2984653;79;21033;-93
2022/11/07 09:57:49;;;;;;;2.10;1.42;;;;;;;13.67;86.49;100223.33;2961973;78;21063;-91
2022/11/07 10:01:51;;;;;;;8.75;2.37;;;;;;;13.79;84.58;100227.50;2966229;78;21822;-91
2022/11/07 10:06:21;;;;;;;5.08;3.02;;;;;;;13.83;83.77;100232.03;2939181;78;21065;-90
2022/11/07 10:10:49;;;;;;;4.35;2.42;;;;;;;13.80;84.18;100230.52;2926098;78;21014;-91
2022/11/07 10:15:13;;;;;;;3.30;2.70;;;;;;;13.90;84.12;100230.47;2920724;79;21561;-91
2022/11/07 10:19:35;;;;;;;2.83;2.40;;;;;;;13.90;83.93;100242.98;2941337;79;21589;-92
2022/11/07 10:24:04;;;;;;;3.05;2.58;;;;;;;13.89;82.98;100237.28;2980125;77;21042;-92
2022/11/07 10:28:17;;;;;;;3.02;2.17;;;;;;;13.96;84.53;100240.56;3043892;76;21510;-90
2022/11/07 10:32:32;;;;;;;4.50;2.50;;;;;;;14.03;85.35;100243.96;2994359;77;21046;-91
2022/11/07 10:36:34;;;;;;;2.45;1.72;;;;;;;14.10;85.96;100237.86;2981614;77;21416;-89
2022/11/07 10:40:40;;;;;;;4.08;1.85;;;;;;;14.08;83.29;100233.68;2983556;77;21007;-92
2022/11/07 10:44:42;;;;;;;;;;;;;;;14.21;84.15;100240.00;2943063;77;21591;-91
2022/11/07 10:48:55;;;;;;;2.92;2.52;;;;;;;14.39;83.27;100240.86;2938045;78;20096;-92
2022/11/07 10:53:08;;;;;;;2.37;1.62;;;;;;;14.52;83.29;100244.98;2921851;79;21044;-90
2022/11/07 10:57:19;;;;;;;2.47;1.95;;;;;;;14.62;82.55;100240.88;2927607;79;21068;-90
2022/11/07 11:01:26;;;;;;;4.15;2.12;;;;;;;14.66;82.47;100246.30;2936390;79;20968;-92
2022/11/07 11:05:33;;;;;;;2.17;1.27;;;;;;;14.67;81.02;100236.76;2936147;78;20988;-93
2022/11/07 11:09:35;;;;;;;3.05;1.67;;;;;;;14.74;81.29;100233.48;2950329;79;20988;-93
2022/11/07 11:13:37;;;;;;;1.60;1.22;;;;;;;14.80;83.87;100236.91;2944917;78;20995;-92
2022/11/07 11:17:42;;;;;;;2.15;1.45;;;;;;;14.81;82.86;100226.02;2926318;79;21015;-92
2022/11/07 11:21:46;;;;;;;2.30;1.20;;;;;;;14.78;81.64;100228.19;2932002;78;20963;-93
2022/11/07 11:25:51;;;;;;;3.00;2.35;;;;;;;14.77;80.96;100213.95;2957086;78;20998;-94
2022/11/07 11:30:06;;;;;;;3.33;1.82;;;;;;;14.82;81.27;100214.83;2948239;78;20983;-92
2022/11/07 11:34:39;;;;;;;2.75;2.25;;;;;;;14.83;82.05;100217.84;2935606;79;21026;-93
2022/11/07 11:38:45;;;;;;;2.02;1.25;;;;;;;14.82;79.90;100213.48;2913437;78;21581;-93
2022/11/07 11:42:55;;;;;;;;;;;;;;;14.94;81.85;100205.56;2995241;77;21044;-93
2022/11/07 11:47:05;;;;;;;4.78;1.22;;;;;;;15.02;80.32;100208.77;2998013;77;20396;-91
2022/11/07 11:51:26;;;;;;;2.08;1.62;;;;;;;14.97;78.18;100205.24;2984221;77;21615;-93
2022/11/07 11:55:33;;;;;;;1.85;1.40;;;;;;;15.05;81.04;100205.80;3017850;76;20971;-92
2022/11/07 11:59:52;;;;;;;2.90;1.55;;;;;;;15.03;79.25;100204.27;3009171;77;21024;-94
2022/11/07 12:03:59;;;;;;;1.82;1.10;;;;;;;15.09;80.34;100196.45;3008130;76;21526;-94
2022/11/07 12:08:24;;;;;;;3.25;1.50;;;;;;;15.17;79.21;100205.03;2994690;76;21522;-93
2022/11/07 12:12:39;;;;;;;2.90;1.62;;;;;;;15.23;80.18;100199.03;3006445;78;21482;-92
2022/11/07 12:17:10;;;;;;;1.67;1.30;;;;;;;15.27;80.05;100196.37;3017759;77;20952;-92
2022/11/07 12:21:23;;;;;;;2.33;1.45;;;;;;;15.32;79.68;100191.03;2977457;77;20984;-93
2022/11/07 12:25:35;;;;;;;2.95;1.05;;;;;;;15.34;80.08;100195.75;3045457;76;20980;-92
2022/11/07 12:29:54;;;;;;;3.27;1.45;;;;;;;15.30;78.75;100189.02;2950398;77;21000;-93
2022/11/07 12:34:06;;;;;;;2.00;1.55;;;;;;;15.25;79.97;100190.33;2989550;78;21508;-93
2022/11/07 12:38:34;;;;;;;2.08;1.75;;;;;;;15.17;78.73;100198.82;2989728;76;20972;-93
2022/11/07 12:42:50;;;;;;;4.30;1.70;;;;;;;15.13;79.32;100196.95;2986416;77;21474;-92
2022/11/07 12:46:56;;;;;;;3.72;1.75;;;;;;;15.23;81.06;100193.67;3019637;77;21003;-92
2022/11/07 12:51:05;;;;;;;5.00;1.60;;;;;;;15.33;81.08;100200.27;2953361;78;20996;-93
2022/11/07 12:55:33;;;;;;;2.92;1.00;;;;;;;15.36;80.15;100195.92;3006330;76;22051;-94
2022/11/07 12:59:37;;;;;;;1.90;1.50;;;;;;;15.37;80.22;100193.58;2946422;77;20987;-93
2022/11/07 13:04:07;;;;;;;1.85;1.40;;;;;;;15.41;82.62;100195.45;2981334;78;21035;-92
2022/11/07 13:08:29;;;;;;;3.15;1.60;;;;;;;15.46;81.02;100186.42;2939634;78;20984;-94
2022/11/07 13:12:57;;;;;;;2.00;1.57;;;;;;;15.56;81.65;100190.31;2901285;79;20964;-92
2022/11/07 13:17:36;;;;;;;;;;;;;;;;;;;;;
2022/11/07 13:21:24;;;;;;;2.15;1.15;;;;;;;15.56;80.69;100187.15;2934206;79;20947;-92
2022/11/07 13:25:31;;;;;;;3.45;1.17;;;;;;;15.55;80.86;100185.47;2966263;77;20987;-91
2022/11/07 13:29:36;;;;;;;2.08;1.85;;;;;;;15.63;81.60;100186.02;2928559;79;20991;-93
2022/11/07 13:33:39;;;;;;;3.47;2.05;;;;;;;15.70;81.12;100184.84;2969599;78;20994;-92
2022/11/07 13:37:46;;;;;;;4.30;2.22;;;;;;;15.68;80.46;100182.82;2977172;78;21038;-93
2022/11/07 13:41:48;;;;;;;2.83;2.40;;;;;;;15.63;80.56;100182.47;2964805;78;21097;-91
2022/11/07 13:46:05;;;;;;;4.53;2.22;;;;;;;15.67;80.54;100182.48;2969562;78;21055;-93
2022/11/07 13:50:18;;;;;;;3.75;2.22;;;;;;;15.67;80.04;100176.63;2997314;78;21005;-92
2022/11/07 13:54:41;;;;;;;2.87;2.35;;;;;;;15.64;80.09;100188.17;2973283;78;21459;-95
2022/11/07 13:58:43;;;;;;;3.02;1.70;;;;;;;15.65;80.83;100193.39;2945139;78;20975;-94
2022/11/07 14:02:56;;;;;;;5.10;2.20;;;;;;;15.66;80.58;100195.06;2906853;77;21024;-88
2022/11/07 14:07:01;;;;;;;3.37;2.15;;;;;;;15.69;80.98;100199.25;2854961;80;20988;-94
2022/11/07 14:11:07;;;;;;;3.90;2.37;;;;;;;15.67;81.28;100203.45;2885707;80;21015;-90
2022/11/07 14:20:16;;;;;;;4.42;2.70;;;;;;;15.64;82.11;100204.27;2934357;77;20093;-92
2022/11/07 14:24:26;;;;;;;;;;;;;;;15.62;82.39;100211.62;2960993;78;21004;-94
2022/11/07 14:28:37;;;;;;;48.75;29.05;;;;;;;15.67;82.51;100208.81;2964063;78;20098;-94
2022/11/07 14:32:46;;;;;;;14.03;7.45;;;;;;;15.61;82.83;100205.92;2942761;79;20976;-91
2022/11/07 14:37:01;;;;;;;7.85;4.70;;;;;;;15.40;82.71;100201.30;2974747;78;20995;-94
2022/11/07 14:41:03;;;;;;;5.10;3.42;;;;;;;15.20;83.58;100206.05;2954680;78;21016;-92
2022/11/07 14:45:06;;;;;;;24.10;13.55;;;;;;;15.06;84.64;100206.14;2938817;78;21082;-91
2022/11/07 14:49:27;;;;;;;25.57;16.07;;;;;;;14.96;84.45;100198.69;2968926;77;20999;-94
2022/11/07 14:53:34;;;;;;;9.45;7.58;;;;;;;14.85;84.43;100202.46;2967715;77;21047;-93
2022/11/07 14:57:38;;;;;;;6.17;4.58;;;;;;;14.76;84.35;100204.75;2976601;77;21047;-91
2022/11/07 15:01:53;;;;;;;5.17;2.52;;;;;;;14.68;84.45;100202.30;2985677;77;21153;-94
2022/11/07 15:05:55;;;;;;;2.40;1.95;;;;;;;14.60;83.72;100202.24;2911836;77;20964;-94
2022/11/07 15:10:13;;;;;;;4.33;1.80;;;;;;;14.51;83.54;100216.05;2888572;78;21007;-94
2022/11/07 15:14:34;;;;;;;3.42;1.90;;;;;;;14.41;83.62;100222.81;2916681;76;21039;-90
2022/11/07 15:18:43;;;;;;;6.20;2.95;;;;;;;14.25;84.06;100218.63;2894799;80;72021;-61
2022/11/07 15:22:45;;;;;;;2.65;2.00;;;;;;;14.03;84.30;100217.22;2917683;80;21032;-64
2022/11/07 15:27:03;;;;;;;3.02;2.50;;;;;;;13.84;84.91;100214.52;2921669;80;21028;-61
2022/11/07 15:31:07;;;;;;;5.08;4.08;;;;;;;13.70;85.23;100233.72;2908264;80;21051;-64
2022/11/07 15:35:15;;;;;;;9.28;6.97;;;;;;;13.58;85.57;100236.25;2930404;80;21029;-63
2022/11/07 15:39:17;;;;;;;9.25;7.15;;;;;;;13.48;86.50;100230.94;2918033;79;20972;-65
2022/11/07 15:43:26;;;;;;;14.83;9.93;;;;;;;13.37;87.21;100229.26;2900174;80;20986;-64
2022/11/07 15:47:28;;;;;;;12.45;8.23;;;;;;;13.24;87.33;100229.07;2883732;81;21031;-62
2022/11/07 15:51:30;;;;;;;11.78;7.42;;;;;;;13.15;86.96;100231.26;2905997;80;21012;-63
2022/11/07 15:55:32;;;;;;;10.55;7.90;;;;;;;13.01;86.71;100227.22;2903444;80;20968;-61
2022/11/07 15:59:36;;;;;;;12.58;9.55;;;;;;;12.84;87.01;100225.62;2911063;80;21042;-61
2022/11/07 16:03:38;;;;;;;14.70;8.83;;;;;;;12.69;87.66;100215.88;2824148;82;21441;-62
2022/11/07 16:07:43;;;;;;;12.85;8.78;;;;;;;12.55;87.86;100219.81;2905300;79;21075;-60
2022/11/07 16:11:45;;;;;;;14.45;10.65;;;;;;;12.50;87.83;100233.22;2910647;80;21119;-60
2022/11/07 16:15:51;;;;;;;14.18;8.50;;;;;;;12.43;87.89;100230.27;2914898;80;21107;-63
2022/11/07 16:19:54;;;;;;;10.45;8.70;;;;;;;12.36;87.92;100237.97;2838489;82;21056;-61
2022/11/07 16:23:55;;;;;;;19.70;9.78;;;;;;;12.24;87.87;100225.25;2918300;79;21064;-61
2022/11/07 16:27:59;;;;;;;17.87;9.95;;;;;;;12.14;87.82;100221.23;2938218;78;21060;-61
2022/11/07 16:32:00;;;;;;;18.80;10.72;;;;;;;12.12;87.48;100218.38;2914674;80;21054;-60
2022/11/07 16:36:23;;;;;;;18.50;13.68;;;;;;;12.07;87.09;100224.11;2932477;79;20970;-61
2022/11/07 16:40:24;;;;;;;30.30;21.15;;;;;;;11.98;87.00;100224.89;2937592;80;21510;-61
2022/11/07 16:44:26;;;;;;;27.58;19.50;;;;;;;11.81;87.30;100233.91;2928156;80;21094;-62
2022/11/07 16:48:29;;;;;;;25.60;15.50;;;;;;;11.74;87.82;100234.58;2907423;79;21165;-61
2022/11/07 16:52:40;;;;;;;17.40;11.20;;;;;;;11.69;88.12;100233.65;2916935;79;20973;-60
2022/11/07 16:56:42;;;;;;;40.92;24.82;;;;;;;11.64;87.90;100228.72;2880955;80;21071;-64
2022/11/07 17:00:44;;;;;;;81.32;47.50;;;;;;;11.26;89.69;100236.40;2901600;81;21057;-62
2022/11/07 17:04:46;;;;;;;53.40;31.25;;;;;;;11.00;90.20;100236.81;2904326;81;21047;-63
2022/11/07 17:08:48;;;;;;;33.63;19.48;;;;;;;10.79;91.62;100231.47;2907584;80;21077;-62
2022/11/07 17:12:49;;;;;;;23.55;15.90;;;;;;;10.63;92.99;100234.58;2871239;81;21094;-62
2022/11/07 17:16:52;;;;;;;17.98;14.40;;;;;;;10.63;93.25;100237.70;2875178;80;23502;-62
2022/11/07 17:20:55;;;;;;;21.85;13.13;;;;;;;10.61;93.04;100241.84;2933386;79;21061;-62
2022/11/07 17:24:57;;;;;;;20.43;13.68;;;;;;;10.64;92.97;100236.27;2861553;79;20996;-61
2022/11/07 17:29:00;;;;;;;19.75;14.43;;;;;;;10.65;93.13;100241.08;2943343;79;21063;-65
2022/11/07 17:37:46;;;;;;;14.05;10.10;;;;;;;10.70;93.79;100248.18;2953627;76;71054;-87
2022/11/07 17:41:53;;;;;;;13.60;10.05;;;;;;;10.78;93.34;100248.88;2978222;77;21006;-88
2022/11/07 17:45:54;;;;;;;20.50;11.25;;;;;;;10.80;93.29;100248.26;2880891;78;21046;-88
2022/11/07 17:49:57;;;;;;;17.32;12.23;;;;;;;10.76;93.64;100254.34;2986329;77;20995;-88
2022/11/07 17:53:59;;;;;;;18.50;11.50;;;;;;;10.81;93.72;100249.98;2994601;77;21115;-88
2022/11/07 17:58:00;;;;;;;15.50;10.38;;;;;;;10.86;93.83;100254.42;3009333;77;21654;-86
2022/11/07 18:06:41;;;;;;;11.88;9.85;;;;;;;10.83;94.78;100247.52;2949360;75;71596;-92
2022/11/07 18:10:43;;;;;;;16.17;11.28;;;;;;;10.81;95.76;100251.30;2920545;78;21000;-93
2022/11/07 18:14:45;;;;;;;16.05;10.32;;;;;;;10.81;95.81;100253.97;2858363;80;20995;-93
2022/11/07 18:18:46;;;;;;;14.07;10.60;;;;;;;10.81;95.74;100260.12;2970265;77;20995;-89
2022/11/07 18:22:48;;;;;;;16.12;11.43;;;;;;;10.81;96.54;100261.45;3001841;77;21449;-92
2022/11/07 18:26:51;;;;;;;16.87;12.47;;;;;;;10.87;96.47;100254.78;2958926;77;20979;-93
2022/11/07 18:31:01;;;;;;;23.25;16.27;;;;;;;10.89;97.61;100258.62;2984088;76;20982;-91
2022/11/07 18:35:09;;;;;;;18.23;11.55;;;;;;;10.94;98.09;100265.75;2981637;78;21550;-91
2022/11/07 18:39:20;;;;;;;16.93;11.78;;;;;;;11.00;98.60;100270.55;3021229;77;21013;-93
2022/11/07 18:43:29;;;;;;;12.95;11.60;;;;;;;11.10;98.69;100270.63;3003686;77;21643;-90
2022/11/07 18:47:37;;;;;;;14.30;10.80;;;;;;;11.15;98.55;100264.41;2964986;77;21050;-91
2022/11/07 18:51:39;;;;;;;14.07;9.50;;;;;;;11.20;98.02;100268.88;2917853;76;21054;-91
2022/11/07 18:55:41;;;;;;;13.55;10.23;;;;;;;11.21;97.79;100269.23;2970970;77;21091;-91
2022/11/07 18:59:46;;;;;;;12.58;10.72;;;;;;;11.22;98.16;100272.25;3009076;76;21443;-90
2022/11/07 19:03:57;;;;;;;;;;;;;;;11.19;99.05;100267.16;2964011;77;21022;-90
2022/11/07 19:08:06;;;;;;;15.30;9.80;;;;;;;11.18;99.53;100265.48;3014144;77;20090;-92
2022/11/07 19:12:23;;;;;;;19.47;10.63;;;;;;;11.25;99.11;100265.33;2911251;79;20961;-87
2022/11/07 19:16:31;;;;;;;14.07;9.30;;;;;;;11.32;98.97;100266.12;2903403;78;21543;-91
2022/11/07 19:20:43;;;;;;;22.07;12.53;;;;;;;11.39;98.52;100271.28;2863075;81;21593;-89
2022/11/07 19:24:47;;;;;;;13.18;10.30;;;;;;;11.43;98.30;100273.55;2986486;77;21042;-89
2022/11/07 19:29:01;;;;;;;14.35;10.30;;;;;;;11.43;98.64;100279.39;2978697;77;21008;-90